Wetterstation Vordersexau
Wetterdaten: Woche 04.12.17 - 10.12.17 (KW49)
Datum Zeit Temp. A. Feuchte A. Luftdruck Regen Wind Richtung Taupunkt Windchill Windben
04.12.2017 00:00 -0,9 C 86 % 1026,4 hPa 0,0 l/m 0,0 km/h W -2,9 C -0,9 C 0,0 km/h
04.12.2017 01:00 -0,8 C 86 % 1026,7 hPa 0,0 l/m 0,0 km/h N -2,8 C -0,8 C 0,0 km/h
04.12.2017 02:00 -0,6 C 86 % 1027,1 hPa 0,0 l/m 0,0 km/h NO -2,6 C -0,6 C 0,0 km/h
04.12.2017 03:00 -0,5 C 85 % 1027,2 hPa 0,0 l/m 0,0 km/h NO -2,7 C -0,5 C 0,0 km/h
04.12.2017 04:00 -0,4 C 85 % 1027,5 hPa 0,0 l/m 0,0 km/h NO -2,6 C -0,4 C 0,0 km/h
04.12.2017 05:00 -0,4 C 85 % 1027,7 hPa 0,0 l/m 0,0 km/h NO -2,6 C -0,4 C 0,0 km/h
04.12.2017 06:00 -0,4 C 85 % 1027,8 hPa 0,0 l/m 0,0 km/h NO -2,6 C -0,4 C 0,0 km/h
04.12.2017 07:00 -0,2 C 84 % 1028,7 hPa 0,0 l/m 0,0 km/h NO -2,6 C -0,2 C 0,0 km/h
04.12.2017 08:00 -0,1 C 84 % 1029,2 hPa 0,0 l/m 0,0 km/h NO -2,5 C -0,1 C 0,0 km/h
04.12.2017 09:00 0,6 C 84 % 1029,5 hPa 0,0 l/m 0,0 km/h NO -1,8 C 0,6 C 0,0 km/h
04.12.2017 10:00 1,1 C 84 % 1030,3 hPa 0,0 l/m 0,0 km/h NO -1,3 C 1,1 C 0,0 km/h
04.12.2017 11:00 1,4 C 84 % 1030,2 hPa 0,0 l/m 0,0 km/h NO -1,0 C 1,4 C 0,0 km/h
04.12.2017 12:00 1,6 C 84 % 1030,0 hPa 0,0 l/m 0,0 km/h NO -0,8 C 1,6 C 0,0 km/h
04.12.2017 13:00 1,9 C 85 % 1030,0 hPa 0,0 l/m 0,0 km/h NO -0,3 C 1,9 C 0,0 km/h
04.12.2017 14:00 1,6 C 85 % 1030,0 hPa 0,0 l/m 0,0 km/h NO -0,6 C 1,6 C 0,0 km/h
04.12.2017 15:00 1,2 C 85 % 1030,6 hPa 0,0 l/m 0,0 km/h NO -1,0 C 1,2 C 0,0 km/h
04.12.2017 16:00 0,9 C 84 % 1031,0 hPa 0,0 l/m 0,0 km/h NO -1,5 C 0,9 C 0,0 km/h
04.12.2017 17:00 0,9 C 83 % 1031,5 hPa 0,5 l/m 0,0 km/h NO -1,7 C 0,9 C 0,0 km/h
04.12.2017 18:00 1,0 C 82 % 1032,0 hPa 0,0 l/m 0,0 km/h NO -1,7 C 1,0 C 0,0 km/h
04.12.2017 19:00 1,1 C 82 % 1032,4 hPa 0,0 l/m 0,0 km/h NO -1,6 C 1,1 C 0,0 km/h
04.12.2017 20:00 1,1 C 82 % 1032,6 hPa 0,0 l/m 0,0 km/h NO -1,6 C 1,1 C 0,0 km/h
04.12.2017 21:00 1,1 C 81 % 1032,9 hPa 0,0 l/m 0,0 km/h NO -1,8 C 1,1 C 0,0 km/h
04.12.2017 22:00 1,2 C 80 % 1033,3 hPa 0,5 l/m 0,0 km/h O-NO -1,9 C 1,2 C 0,0 km/h
04.12.2017 23:00 0,9 C 80 % 1033,9 hPa 0,0 l/m 0,0 km/h O-NO -2,2 C 0,9 C 0,0 km/h
05.12.2017 00:00 0,9 C 79 % 1034,1 hPa 0,0 l/m 0,0 km/h O-NO -2,3 C 0,9 C 0,0 km/h
05.12.2017 01:00 0,4 C 79 % 1033,9 hPa 0,0 l/m 0,0 km/h O-NO -2,8 C 0,4 C 0,0 km/h
05.12.2017 02:00 0,4 C 79 % 1034,1 hPa 0,0 l/m 0,0 km/h O-NO -2,8 C 0,4 C 0,0 km/h
05.12.2017 03:00 0,9 C 78 % 1034,1 hPa 0,5 l/m 0,0 km/h O-SO -2,5 C 0,9 C 0,0 km/h
05.12.2017 04:00 0,9 C 78 % 1033,9 hPa 0,0 l/m 0,0 km/h O-SO -2,5 C 0,9 C 0,0 km/h
05.12.2017 05:00 0,9 C 77 % 1033,8 hPa 0,0 l/m 0,0 km/h O-SO -2,7 C 0,9 C 0,0 km/h
05.12.2017 06:00 1,0 C 77 % 1034,0 hPa 0,0 l/m 0,0 km/h O-SO -2,6 C 1,0 C 0,0 km/h
05.12.2017 07:00 1,0 C 76 % 1034,4 hPa 0,0 l/m 0,0 km/h O-SO -2,7 C 1,0 C 0,0 km/h
05.12.2017 08:00 1,5 C 76 % 1034,7 hPa 0,0 l/m 3,2 km/h N -2,3 C 1,5 C 1,8 km/h
05.12.2017 09:00 2,7 C 74 % 1034,8 hPa 0,5 l/m 0,0 km/h O-SO -1,5 C 2,7 C 0,0 km/h
05.12.2017 10:00 4,7 C 78 % 1035,2 hPa 0,5 l/m 0,0 km/h O-SO 1,2 C 4,7 C 0,0 km/h
05.12.2017 11:00 6,3 C 81 % 1034,6 hPa 0,0 l/m 0,0 km/h N-NO 3,3 C 6,3 C 0,0 km/h
05.12.2017 12:00 8,2 C 85 % 1034,4 hPa 0,0 l/m 0,0 km/h NO 5,8 C 8,2 C 0,0 km/h
05.12.2017 13:00 6,8 C 83 % 1034,3 hPa 0,0 l/m 0,0 km/h O-SO 4,1 C 6,8 C 0,0 km/h
05.12.2017 14:00 6,2 C 84 % 1034,1 hPa 0,0 l/m 0,0 km/h O-SO 3,7 C 6,2 C 0,0 km/h
05.12.2017 15:00 4,5 C 85 % 1033,8 hPa 0,0 l/m 0,0 km/h O-SO 2,2 C 4,5 C 0,0 km/h
05.12.2017 16:00 3,8 C 85 % 1034,1 hPa 0,0 l/m 0,0 km/h O-SO 1,5 C 3,8 C 0,0 km/h
05.12.2017 17:00 2,6 C 86 % 1034,5 hPa 0,0 l/m 0,0 km/h O-SO 0,5 C 2,6 C 0,0 km/h
05.12.2017 18:00 3,0 C 85 % 1034,4 hPa 0,0 l/m 0,0 km/h O-NO 0,7 C 3,0 C 0,0 km/h
05.12.2017 19:00 2,5 C 84 % 1034,4 hPa 0,0 l/m 0,0 km/h O-NO 0,1 C 2,5 C 0,0 km/h
05.12.2017 20:00 2,8 C 84 % 1034,5 hPa 0,0 l/m 0,0 km/h O-NO 0,4 C 2,8 C 0,0 km/h
05.12.2017 21:00 2,8 C 84 % 1034,5 hPa 0,0 l/m 0,0 km/h SO 0,4 C 2,8 C 0,0 km/h
05.12.2017 22:00 2,8 C 83 % 1034,2 hPa 0,0 l/m 0,0 km/h W-SW 0,2 C 2,8 C 0,0 km/h
05.12.2017 23:00 2,4 C 83 % 1034,2 hPa 0,0 l/m 0,0 km/h W-SW -0,2 C 2,4 C 0,0 km/h
06.12.2017 00:00 2,3 C 83 % 1034,0 hPa 0,0 l/m 0,0 km/h W-SW -0,3 C 2,3 C 0,0 km/h
06.12.2017 01:00 2,3 C 83 % 1033,9 hPa 0,0 l/m 0,0 km/h SO -0,3 C 2,3 C 0,0 km/h
06.12.2017 02:00 2,1 C 83 % 1033,7 hPa 0,0 l/m 0,0 km/h SO -0,5 C 2,1 C 0,0 km/h
06.12.2017 03:00 1,9 C 83 % 1033,7 hPa 0,0 l/m 0,0 km/h O-SO -0,7 C 1,9 C 0,0 km/h
06.12.2017 04:00 1,8 C 84 % 1033,4 hPa 0,0 l/m 0,0 km/h SO -0,6 C 1,8 C 0,0 km/h
06.12.2017 05:00 1,4 C 84 % 1033,4 hPa 0,0 l/m 0,0 km/h SO -1,0 C 1,4 C 0,0 km/h
06.12.2017 06:00 1,5 C 84 % 1033,2 hPa 0,0 l/m 0,0 km/h SO -0,9 C 1,5 C 0,0 km/h
06.12.2017 07:00 1,5 C 84 % 1033,1 hPa 0,0 l/m 0,0 km/h SO -0,9 C 1,5 C 0,0 km/h
06.12.2017 08:00 1,8 C 83 % 1033,0 hPa 0,0 l/m 0,0 km/h SO -0,8 C 1,8 C 0,0 km/h
06.12.2017 09:00 2,4 C 84 % 1032,8 hPa 0,0 l/m 0,0 km/h SO -0,0 C 2,4 C 0,0 km/h
06.12.2017 10:00 3,5 C 85 % 1032,7 hPa 0,0 l/m 0,0 km/h S-SW 1,2 C 3,5 C 0,0 km/h
06.12.2017 11:00 7,9 C 83 % 1031,8 hPa 0,0 l/m 0,0 km/h W-SW 5,2 C 7,9 C 0,0 km/h
06.12.2017 12:00 8,1 C 75 % 1031,3 hPa 0,0 l/m 0,0 km/h W-SW 3,9 C 8,1 C 0,0 km/h
06.12.2017 13:00 8,9 C 70 % 1030,8 hPa 0,0 l/m 0,0 km/h W-SW 3,7 C 8,9 C 0,0 km/h
06.12.2017 14:00 9,1 C 68 % 1030,3 hPa 0,5 l/m 0,0 km/h W 3,5 C 9,1 C 0,0 km/h
06.12.2017 15:00 8,3 C 67 % 1030,2 hPa 0,0 l/m 0,0 km/h W 2,5 C 8,3 C 0,0 km/h
06.12.2017 16:00 3,8 C 77 % 1030,0 hPa 0,0 l/m 0,0 km/h W 0,1 C 3,8 C 0,0 km/h
06.12.2017 17:00 2,5 C 82 % 1029,8 hPa 0,0 l/m 0,0 km/h W -0,3 C 2,5 C 0,0 km/h
06.12.2017 18:00 1,9 C 83 % 1029,6 hPa 0,0 l/m 0,0 km/h W -0,7 C 1,9 C 0,0 km/h
06.12.2017 19:00 1,6 C 84 % 1029,2 hPa 0,0 l/m 0,0 km/h W -0,8 C 1,6 C 0,0 km/h
06.12.2017 20:00 1,6 C 85 % 1028,6 hPa 0,0 l/m 0,0 km/h W -0,6 C 1,6 C 0,0 km/h
06.12.2017 21:00 1,5 C 85 % 1028,3 hPa 0,0 l/m 0,0 km/h W -0,7 C 1,5 C 0,0 km/h
06.12.2017 22:00 1,4 C 85 % 1027,6 hPa 0,0 l/m 0,0 km/h SO -0,8 C 1,4 C 0,0 km/h
06.12.2017 23:00 1,3 C 85 % 1027,2 hPa 0,0 l/m 0,0 km/h S-SO -0,9 C 1,3 C 0,0 km/h
07.12.2017 00:00 1,2 C 86 % 1026,3 hPa 0,0 l/m 0,0 km/h S-SO -0,9 C 1,2 C 0,0 km/h
07.12.2017 01:00 0,8 C 86 % 1025,5 hPa 0,0 l/m 0,0 km/h S-SO -1,3 C 0,8 C 0,0 km/h
07.12.2017 02:00 0,2 C 85 % 1025,1 hPa 0,0 l/m 0,0 km/h SO -2,0 C 0,2 C 0,0 km/h
07.12.2017 03:00 -0,1 C 85 % 1024,8 hPa 0,0 l/m 0,0 km/h O-SO -2,3 C -0,1 C 0,0 km/h
07.12.2017 04:00 -1,1 C 85 % 1024,1 hPa 0,0 l/m 0,0 km/h O-SO -3,3 C -1,1 C 0,0 km/h
07.12.2017 05:00 -1,8 C 84 % 1023,8 hPa 0,0 l/m 0,0 km/h N-NO -4,1 C -1,8 C 0,0 km/h
07.12.2017 06:00 -1,2 C 83 % 1023,7 hPa 0,0 l/m 0,0 km/h O-NO -3,7 C -1,2 C 0,0 km/h
07.12.2017 07:00 -1,6 C 83 % 1023,2 hPa 0,0 l/m 0,0 km/h N -4,1 C -1,6 C 0,0 km/h
07.12.2017 08:00 0,3 C 79 % 1023,2 hPa 0,0 l/m 0,0 km/h S-SO -2,9 C 0,3 C 0,0 km/h
07.12.2017 09:00 7,7 C 83 % 1023,2 hPa 0,0 l/m 0,0 km/h N-NO 5,0 C 7,7 C 0,0 km/h
07.12.2017 10:00 11,8 C 67 % 1022,6 hPa 0,0 l/m 0,0 km/h S-SW 5,9 C 11,8 C 0,0 km/h
07.12.2017 11:00 11,5 C 55 % 1021,4 hPa 0,0 l/m 20,1 km/h SW 2,8 C 5,2 C 11,2 km/h
07.12.2017 12:00 11,1 C 53 % 1020,4 hPa 0,0 l/m 24,6 km/h S 1,9 C 3,4 C 13,7 km/h
07.12.2017 13:00 11,6 C 49 % 1019,2 hPa 0,0 l/m 29,8 km/h S-SW 1,3 C 2,9 C 16,6 km/h
07.12.2017 14:00 12,4 C 48 % 1018,3 hPa 0,0 l/m 21,4 km/h S-SW 1,7 C 6,0 C 11,9 km/h
07.12.2017 15:00 11,3 C 51 % 1018,2 hPa 0,0 l/m 19,4 km/h S-SW 1,5 C 5,2 C 10,8 km/h
07.12.2017 16:00 7,2 C 64 % 1017,6 hPa 0,0 l/m 33,7 km/h S 0,9 C -4,1 C 18,7 km/h
07.12.2017 17:00 7,1 C 69 % 1017,0 hPa 0,0 l/m 0,0 km/h SW 1,8 C 7,1 C 0,0 km/h
07.12.2017 18:00 6,9 C 70 % 1016,2 hPa 0,0 l/m 22,0 km/h SW 1,8 C -1,4 C 12,2 km/h
07.12.2017 19:00 7,2 C 69 % 1015,2 hPa 0,0 l/m 13,6 km/h SW 1,9 C 2,4 C 7,6 km/h
07.12.2017 20:00 7,9 C 64 % 1013,6 hPa 0,0 l/m 13,0 km/h W-SW 1,5 C 3,6 C 7,2 km/h
07.12.2017 21:00 8,9 C 57 % 1012,7 hPa 0,0 l/m 20,7 km/h W 0,9 C 1,6 C 11,5 km/h
07.12.2017 22:00 10,1 C 52 % 1012,1 hPa 0,0 l/m 21,4 km/h W-SW 0,7 C 3,0 C 11,9 km/h
07.12.2017 23:00 8,5 C 63 % 1012,1 hPa 0,0 l/m 48,6 km/h W-SW 1,9 C -4,5 C 27,0 km/h
08.12.2017 00:00 8,3 C 69 % 1011,4 hPa 0,0 l/m 12,3 km/h W-SW 3,0 C 4,4 C 6,8 km/h
08.12.2017 01:00 6,4 C 82 % 1011,3 hPa 0,0 l/m 23,3 km/h W-SW 3,6 C -2,5 C 13,0 km/h
08.12.2017 02:00 7,4 C 82 % 1010,9 hPa 0,0 l/m 40,2 km/h SW 4,5 C -5,0 C 22,3 km/h
08.12.2017 03:00 7,6 C 83 % 1010,3 hPa 0,0 l/m 21,4 km/h SW 4,9 C -0,3 C 11,9 km/h
08.12.2017 04:00 7,7 C 83 % 1010,1 hPa 0,0 l/m 26,6 km/h W-SW 5,0 C -1,7 C 14,8 km/h
08.12.2017 05:00 7,6 C 83 % 1010,0 hPa 0,0 l/m 18,1 km/h N-NW 4,9 C 0,9 C 10,1 km/h
08.12.2017 06:00 5,7 C 84 % 1010,8 hPa 0,5 l/m 0,0 km/h SO 3,2 C 5,7 C 0,0 km/h
08.12.2017 07:00 4,4 C 85 % 1011,0 hPa 1,6 l/m 0,0 km/h S 2,1 C 4,4 C 0,0 km/h
08.12.2017 08:00 4,3 C 85 % 1011,3 hPa 0,0 l/m 0,0 km/h S-SO 2,0 C 4,3 C 0,0 km/h
08.12.2017 09:00 5,0 C 85 % 1011,8 hPa 0,0 l/m 0,0 km/h SW 2,7 C 5,0 C 0,0 km/h
08.12.2017 10:00 6,1 C 85 % 1012,4 hPa 0,0 l/m 9,7 km/h S-SW 3,8 C 3,5 C 5,4 km/h
08.12.2017 11:00 6,8 C 82 % 1011,9 hPa 0,0 l/m 13,0 km/h SW 3,9 C 2,3 C 7,2 km/h
08.12.2017 12:00 5,3 C 79 % 1011,1 hPa 0,0 l/m 29,2 km/h S-SW 2,0 C -5,7 C 16,2 km/h
08.12.2017 13:00 3,0 C 84 % 1012,3 hPa 0,5 l/m 8,4 km/h S 0,6 C 1,2 C 4,7 km/h
08.12.2017 14:00 3,5 C 84 % 1012,1 hPa 0,0 l/m 5,2 km/h W 1,1 C 3,5 C 2,9 km/h
08.12.2017 15:00 3,4 C 81 % 1011,7 hPa 0,0 l/m 25,3 km/h SW 0,5 C -7,2 C 14,0 km/h
08.12.2017 16:00 2,8 C 80 % 1012,3 hPa 0,0 l/m 7,8 km/h S -0,3 C 1,5 C 4,3 km/h
08.12.2017 17:00 2,1 C 81 % 1012,4 hPa 0,0 l/m 13,6 km/h S -0,8 C -3,6 C 7,6 km/h
08.12.2017 18:00 2,6 C 80 % 1012,4 hPa 0,0 l/m 13,6 km/h SW -0,5 C -3,0 C 7,6 km/h
08.12.2017 19:00 2,9 C 77 % 1012,3 hPa 0,0 l/m 27,2 km/h W-SW -0,7 C -8,5 C 15,1 km/h
08.12.2017 20:00 1,5 C 85 % 1013,1 hPa 0,0 l/m 21,4 km/h W-SW -0,7 C -8,3 C 11,9 km/h
08.12.2017 21:00 1,6 C 85 % 1013,4 hPa 0,0 l/m 0,0 km/h W-NW -0,6 C 1,6 C 0,0 km/h
08.12.2017 22:00 0,9 C 85 % 1013,6 hPa 0,0 l/m 0,0 km/h S-SW -1,3 C 0,9 C 0,0 km/h
08.12.2017 23:00 0,7 C 86 % 1013,6 hPa 0,0 l/m 0,0 km/h W -1,4 C 0,7 C 0,0 km/h
09.12.2017 00:00 1,1 C 85 % 1013,3 hPa 0,0 l/m 0,0 km/h W -1,1 C 1,1 C 0,0 km/h
09.12.2017 01:00 0,1 C 85 % 1013,7 hPa 0,0 l/m 0,0 km/h SW -2,1 C 0,1 C 0,0 km/h
09.12.2017 02:00 0,1 C 86 % 1014,2 hPa 0,0 l/m 0,0 km/h W-SW -2,0 C 0,1 C 0,0 km/h
09.12.2017 03:00 0,0 C 86 % 1014,9 hPa 0,0 l/m 0,0 km/h W -2,1 C 0,0 C 0,0 km/h
09.12.2017 04:00 -0,1 C 86 % 1014,7 hPa 0,0 l/m 0,0 km/h W-SW -2,2 C -0,1 C 0,0 km/h
09.12.2017 05:00 -0,2 C 85 % 1014,7 hPa 0,0 l/m 0,0 km/h W-SW -2,4 C -0,2 C 0,0 km/h
09.12.2017 06:00 -1,4 C 85 % 1014,9 hPa 0,0 l/m 0,0 km/h W -3,6 C -1,4 C 0,0 km/h
09.12.2017 07:00 -1,8 C 86 % 1015,2 hPa 0,0 l/m 0,0 km/h W-SW -3,8 C -1,8 C 0,0 km/h
09.12.2017 08:00 -0,5 C 86 % 1015,8 hPa 0,0 l/m 0,0 km/h SW -2,5 C -0,5 C 0,0 km/h
09.12.2017 09:00 0,1 C 86 % 1016,1 hPa 0,0 l/m 7,1 km/h W-SW -2,0 C -0,6 C 4,0 km/h
09.12.2017 10:00 0,9 C 84 % 1016,7 hPa 0,0 l/m 12,3 km/h SW -1,5 C -4,2 C 6,8 km/h
09.12.2017 11:00 1,6 C 82 % 1016,4 hPa 0,0 l/m 7,8 km/h SW -1,1 C 0,2 C 4,3 km/h
09.12.2017 12:00 4,3 C 76 % 1015,9 hPa 0,0 l/m 21,4 km/h W-SW 0,5 C -4,6 C 11,9 km/h
09.12.2017 13:00 5,6 C 69 % 1015,8 hPa 0,0 l/m 21,4 km/h W 0,4 C -2,9 C 11,9 km/h
09.12.2017 14:00 3,8 C 71 % 1015,8 hPa 0,0 l/m 18,1 km/h SW -1,0 C -3,9 C 10,1 km/h
09.12.2017 15:00 1,8 C 78 % 1016,0 hPa 0,0 l/m 11,0 km/h S-SW -1,6 C -2,2 C 6,1 km/h
09.12.2017 16:00 1,2 C 73 % 1015,9 hPa 0,0 l/m 21,4 km/h S-SW -3,1 C -8,7 C 11,9 km/h
09.12.2017 17:00 -0,2 C 78 % 1016,0 hPa 0,0 l/m 0,0 km/h SW -3,6 C -0,2 C 0,0 km/h
09.12.2017 18:00 -0,6 C 78 % 1015,3 hPa 0,0 l/m 10,4 km/h S -3,9 C -4,4 C 5,8 km/h
09.12.2017 19:00 -0,4 C 79 % 1015,2 hPa 0,0 l/m 0,0 km/h S-SW -3,6 C -0,4 C 0,0 km/h
09.12.2017 20:00 -0,1 C 79 % 1014,3 hPa 0,0 l/m 10,4 km/h W-SW -3,3 C -3,9 C 5,8 km/h
09.12.2017 21:00 0,4 C 76 % 1014,1 hPa 0,0 l/m 6,5 km/h S-SW -3,3 C 0,3 C 3,6 km/h
09.12.2017 22:00 -0,4 C 77 % 1013,3 hPa 0,0 l/m 18,8 km/h S-SW -3,9 C -9,6 C 10,4 km/h
09.12.2017 23:00 -0,4 C 76 % 1012,1 hPa 0,0 l/m 22,7 km/h S -4,1 C -11,3 C 12,6 km/h
10.12.2017 00:00 -0,2 C 74 % 1011,3 hPa 0,0 l/m 18,8 km/h S -4,3 C -9,3 C 10,4 km/h
10.12.2017 01:00 -0,2 C 72 % 1009,8 hPa 0,0 l/m 16,8 km/h NO -4,6 C -8,3 C 9,4 km/h
10.12.2017 02:00 -0,8 C 73 % 1008,5 hPa 0,0 l/m 0,0 km/h NO -5,0 C -0,8 C 0,0 km/h
10.12.2017 03:00 -0,7 C 76 % 1006,9 hPa 0,0 l/m 0,0 km/h W-SW -4,4 C -0,7 C 0,0 km/h
10.12.2017 04:00 0,1 C 76 % 1005,3 hPa 0,0 l/m 0,0 km/h W-SW -3,6 C 0,1 C 0,0 km/h
10.12.2017 05:00 0,2 C 74 % 1003,3 hPa 0,0 l/m 0,0 km/h N -3,9 C 0,2 C 0,0 km/h
10.12.2017 06:00 -0,7 C 77 % 1001,5 hPa 0,0 l/m 0,0 km/h N -4,2 C -0,7 C 0,0 km/h
10.12.2017 07:00 -0,5 C 79 % 998,1 hPa 0,0 l/m 0,0 km/h O-SO -3,7 C -0,5 C 0,0 km/h
10.12.2017 08:00 2,1 C 61 % 995,9 hPa 0,0 l/m 21,4 km/h O-SO -4,6 C -7,5 C 11,9 km/h
10.12.2017 09:00 0,8 C 76 % 993,5 hPa 0,0 l/m 11,7 km/h O-SO -2,9 C -3,9 C 6,5 km/h
10.12.2017 10:00 0,9 C 82 % 990,3 hPa 0,0 l/m 0,0 km/h N-NO -1,8 C 0,9 C 0,0 km/h
10.12.2017 11:00 1,0 C 84 % 987,3 hPa 0,0 l/m 0,0 km/h N-NO -1,4 C 1,0 C 0,0 km/h
10.12.2017 12:00 0,8 C 85 % 985,9 hPa 1,0 l/m 0,0 km/h O-SO -1,4 C 0,8 C 0,0 km/h
10.12.2017 13:00 1,8 C 85 % 985,4 hPa 1,6 l/m 11,0 km/h SW -0,4 C -2,2 C 6,1 km/h
10.12.2017 14:00 6,7 C 80 % 986,0 hPa 1,6 l/m 22,0 km/h W-SW 3,5 C -1,7 C 12,2 km/h
10.12.2017 15:00 8,2 C 84 % 986,4 hPa 0,0 l/m 28,5 km/h S-SW 5,7 C -1,5 C 15,8 km/h
10.12.2017 16:00 9,0 C 81 % 986,8 hPa 0,0 l/m 29,2 km/h S-SW 5,9 C -0,6 C 16,2 km/h
10.12.2017 17:00 9,4 C 75 % 987,1 hPa 0,0 l/m 24,6 km/h W-SW 5,2 C 1,1 C 13,7 km/h
10.12.2017 18:00 9,7 C 73 % 987,3 hPa 0,0 l/m 40,2 km/h S 5,1 C -1,6 C 22,3 km/h
10.12.2017 19:00 8,6 C 70 % 987,6 hPa 0,0 l/m 18,8 km/h S 3,4 C 1,9 C 10,4 km/h
10.12.2017 20:00 7,9 C 74 % 987,7 hPa 0,0 l/m 48,6 km/h S-SO 3,6 C -5,4 C 27,0 km/h
10.12.2017 21:00 8,4 C 74 % 987,5 hPa 0,0 l/m 23,3 km/h S-SO 4,0 C 0,2 C 13,0 km/h
10.12.2017 22:00 8,9 C 74 % 986,8 hPa 0,0 l/m 19,4 km/h S-SW 4,5 C 2,1 C 10,8 km/h
10.12.2017 23:00 8,9 C 75 % 985,9 hPa 0,0 l/m 25,9 km/h W-SW 4,7 C 0,1 C 14,4 km/h
Min-Datum _ 07.12.17 07.12.17 10.12.17 - 04.12.17 - 10.12.17 09.12.17 04.12.17
_ Min-Zeit 05:53 14:53 13:53 - 00:53 - 02:53 23:53 00:53
Minimum _ -1,8 C 48 % 985,4 hPa - 0,0 km/h - -5,0 C -11,3 C 0,0 km/h
Max-Datum _ 07.12.17 04.12.17 05.12.17 08.12.17 07.12.17 - 10.12.17 07.12.17 07.12.17
_ Max-Zeit 14:53 00:53 10:53 07:53 23:53 - 16:53 10:53 23:53
Maximum _ 12,4 C 86 % 1035,2 hPa 1,6 l/m 48,6 km/h
W-SW
- 5,9 C 11,8 C 27,0 km/h
W-SW
Durchschnitt _ 3,1 C 79 % 1019,5 hPa #9,8 l/m 6,9 km/h W-SW -0,3 C 0,6 C 3,8 km/h
www.sexauwetter.de